Chadstone Weather > Observations for 10/09/20

Select Day:



Observations
Time Temp Hum DP Wind Gust Dir Rain >9am Press
C % C kph kph mm hPa
00:00 9.1 86 6.9 7.6 18.4 SSE 0.0 1035.7
00:10 9.1 86 6.9 7.7 14.8 SSE 0.0 1035.6
00:20 9.0 86 6.8 6.6 14.8 SE 0.0 1035.7
00:30 9.0 87 7.0 6.0 13.3 SE 0.0 1035.7
00:40 8.9 88 7.0 6.1 13.3 S 0.0 1035.6
00:50 8.8 88 6.9 5.5 9.7 SSE 0.0 1035.5
01:00 8.7 88 6.8 7.4 15.8 SE 0.0 1035.4
01:10 8.7 88 6.8 9.0 18.4 ESE 0.0 1035.4
01:20 8.6 88 6.7 6.7 15.8 SE 0.0 1035.3
01:30 8.6 88 6.7 7.6 15.8 SE 0.0 1035.1
01:40 8.6 88 6.7 10.3 18.4 SE 0.0 1034.7
01:50 8.5 88 6.6 11.3 20.9 SE 0.0 1034.5
02:00 8.4 88 6.5 10.1 22.0 SE 0.0 1034.3
02:10 8.4 89 6.7 8.5 17.3 SE 0.0 1034.1
02:20 8.3 89 6.6 8.4 18.4 ESE 0.0 1033.9
02:30 8.2 89 6.5 10.0 15.8 SSE 0.0 1033.9
02:40 8.1 89 6.4 9.2 18.4 SE 0.0 1033.7
02:50 8.1 89 6.4 9.1 17.3 SE 0.0 1033.7
03:00 8.1 89 6.4 5.6 11.2 SE 0.0 1033.5
03:10 8.0 89 6.3 4.0 8.6 SE 0.0 1033.3
03:20 8.0 89 6.3 3.0 8.6 ESE 0.0 1033.3
03:30 7.8 90 6.3 1.7 6.1 E 0.0 1033.4
03:40 7.9 90 6.4 1.5 3.6 N 0.0 1033.4
03:50 7.8 90 6.3 1.1 6.1 N 0.0 1033.3
04:00 7.5 90 6.0 0.5 3.6 N 0.0 1033.4
04:10 7.4 90 5.9 0.1 1.1 N 0.0 1033.5
04:20 7.2 89 5.5 0.0 0.0 N 0.0 1033.4
04:30 7.0 89 5.3 0.3 2.5 S 0.0 1033.6
04:40 6.7 90 5.2 0.0 1.1 E 0.0 1033.5
04:50 6.6 90 5.1 0.6 2.5 NE 0.0 1033.7
05:00 6.5 90 5.0 0.1 2.5 NNE 0.0 1033.8
05:10 6.4 90 4.9 0.0 1.1 NE 0.0 1033.9
05:20 6.5 91 5.1 1.4 7.2 N 0.0 1033.8
05:30 6.7 91 5.3 4.4 9.7 NNE 0.0 1033.8
05:40 6.8 92 5.6 3.2 7.2 NNE 0.0 1033.8
05:50 6.7 92 5.5 3.0 6.1 NW 0.0 1034.0
06:00 6.7 92 5.5 2.1 6.1 N 0.0 1033.9
06:10 6.7 92 5.5 2.7 7.2 NNE 0.0 1034.0
06:20 6.8 92 5.6 1.2 6.1 NNE 0.0 1034.0
06:30 6.9 92 5.7 3.9 7.2 NNE 0.0 1034.2
06:40 6.9 93 5.8 4.4 7.2 NNE 0.0 1034.4
06:50 7.0 92 5.8 2.2 6.1 NNE 0.0 1034.7
07:00 7.0 92 5.8 0.8 3.6 NNE 0.0 1034.7
07:10 7.2 92 6.0 1.1 5.0 NNE 0.0 1034.8
07:20 7.3 92 6.1 0.5 3.6 N 0.0 1034.9
07:30 7.5 92 6.3 3.0 7.2 NNE 0.0 1034.9
07:40 7.6 92 6.4 2.8 6.1 NNE 0.0 1035.1
07:50 7.8 92 6.6 3.7 7.2 NNE 0.0 1035.0
08:00 8.2 92 7.0 4.3 7.2 NE 0.0 1035.1
08:10 8.5 92 7.3 3.3 6.1 NE 0.0 1035.2
08:20 8.9 92 7.7 3.7 7.2 NNE 0.0 1035.0
08:30 9.3 91 7.9 3.5 8.6 NNE 0.0 1034.9
08:40 9.7 90 8.1 3.3 8.6 NNE 0.0 1034.9
08:50 9.9 90 8.3 3.1 7.2 NE 0.0 1034.8
09:00 10.2 88 8.3 2.8 8.6 NNE 0.0 1034.7
09:10 10.6 86 8.4 4.0 8.6 N 0.0 1034.6
09:20 10.9 85 8.5 4.6 11.2 NNE 0.0 1034.4
09:30 11.4 83 8.6 4.7 9.7 NE 0.0 1034.2
09:40 11.8 82 8.8 4.8 12.2 NNE 0.0 1034.2
09:50 12.0 79 8.5 4.4 8.6 NNE 0.0 1034.1
10:00 12.4 77 8.5 4.1 9.7 NE 0.0 1034.1
10:10 12.8 76 8.7 3.5 9.7 N 0.0 1034.1
10:20 13.2 75 8.9 2.5 7.2 ESE 0.0 1034.0
10:30 13.7 74 9.2 3.6 9.7 ENE 0.0 1033.8
10:40 14.4 71 9.2 3.9 9.7 N 0.0 1033.7
10:50 14.6 69 9.0 2.3 8.6 NE 0.0 1033.5
11:00 15.1 68 9.2 1.1 6.1 WSW 0.0 1033.3
11:10 15.6 68 9.7 4.1 9.7 ENE 0.0 1033.0
11:20 16.1 66 9.8 3.2 7.2 NE 0.0 1032.8
11:30 16.5 65 9.9 2.7 7.2 E 0.0 1032.6
11:40 16.9 64 10.1 4.6 11.2 ESE 0.0 1032.4
11:50 17.4 62 10.1 4.6 12.2 NE 0.0 1032.3
12:00 17.4 62 10.1 1.7 7.2 S 0.0 1032.2
12:10 18.1 62 10.7 1.2 5.0 SW 0.0 1031.8
12:20 18.6 60 10.7 2.8 8.6 ESE 0.0 1031.8
12:30 18.8 59 10.6 3.6 7.2 E 0.0 1031.8
12:40 19.1 57 10.4 5.4 11.2 NE 0.0 1031.4
12:50 19.5 56 10.5 3.3 11.2 N 0.0 1031.3
13:00 19.8 55 10.5 3.2 7.2 NNE 0.0 1031.2
13:10 20.1 54 10.5 4.6 9.7 E 0.0 1031.0
13:20 20.4 54 10.8 9.0 15.8 E 0.0 1030.8
13:30 20.5 53 10.6 6.2 14.8 NNE 0.0 1030.7
13:40 20.7 53 10.8 6.7 14.8 NNW 0.0 1030.5
13:50 20.7 52 10.5 7.3 12.2 N 0.0 1030.6
14:00 20.9 51 10.4 6.0 20.9 N 0.0 1030.5
14:10 21.2 49 10.1 9.2 20.9 NNW 0.0 1030.5
14:20 21.2 49 10.1 8.8 18.4 NNW 0.0 1030.6
14:30 21.1 48 9.7 6.9 17.3 N 0.0 1030.5
14:40 21.3 48 9.9 8.6 20.9 NNW 0.0 1030.6
14:50 21.3 47 9.5 7.5 17.3 N 0.0 1030.6
15:00 21.5 48 10.0 6.5 14.8 NW 0.0 1030.5
15:10 21.6 48 10.1 6.8 17.3 NNW 0.0 1030.6
15:20 21.5 48 10.0 8.6 19.4 NNW 0.0 1030.6
15:30 21.7 46 9.6 6.5 14.8 N 0.0 1030.4
15:40 21.6 46 9.5 8.6 14.8 NNW 0.0 1030.5
15:50 21.5 46 9.4 8.7 15.8 NNW 0.0 1030.5
16:00 21.4 47 9.6 6.2 14.8 N 0.0 1030.4
16:10 21.2 48 9.8 4.7 11.2 NNW 0.0 1030.6
16:20 21.2 47 9.5 7.1 13.3 N 0.0 1030.3
16:30 21.1 46 9.0 8.9 15.8 N 0.0 1030.3
16:40 21.2 45 8.8 7.5 17.3 NNW 0.0 1030.5
16:50 21.1 43 8.0 8.8 17.3 ESE 0.0 1030.5
17:00 21.0 45 8.6 9.0 15.8 N 0.0 1030.6
17:10 20.9 45 8.5 7.2 12.2 NNW 0.0 1030.8
17:20 20.8 44 8.1 8.6 17.3 NNW 0.0 1030.9
17:30 20.6 45 8.3 5.7 11.2 NNW 0.0 1031.1
17:40 20.4 46 8.4 4.9 9.7 NW 0.0 1031.3
17:50 20.1 48 8.8 5.2 9.7 NW 0.0 1031.5
18:00 19.8 51 9.4 3.0 9.7 NNW 0.0 1031.6
18:10 19.7 51 9.3 5.1 11.2 NW 0.0 1031.5
18:20 19.5 53 9.7 2.9 7.2 N 0.0 1031.7
18:30 19.1 54 9.6 2.2 7.2 NNW 0.0 1031.7
18:40 18.6 56 9.7 1.3 5.0 NNW 0.0 1031.9
18:50 18.0 58 9.6 0.0 1.1 NW 0.0 1031.9
19:00 17.5 60 9.7 0.5 3.6 SE 0.0 1031.9
19:10 17.0 62 9.7 1.1 5.0 SE 0.0 1031.9
19:20 16.7 64 9.9 1.1 5.0 SSE 0.0 1032.0
19:30 16.3 65 9.7 0.0 1.1 S 0.0 1032.1
19:40 16.0 67 9.9 0.5 2.5 S 0.0 1032.2
19:50 15.7 69 10.0 0.3 2.5 S 0.0 1032.3
20:00 15.4 70 10.0 0.5 2.5 S 0.0 1032.3
20:10 15.3 71 10.1 1.1 2.5 S 0.0 1032.3
20:20 15.0 72 10.0 0.4 2.5 S 0.0 1032.5
20:30 14.8 73 10.0 0.0 0.0 N 0.0 1032.5
20:40 14.5 74 9.9 0.0 0.0 N 0.0 1032.7
20:50 14.3 74 9.7 0.0 0.0 N 0.0 1032.8
21:00 14.1 74 9.5 0.0 0.0 N 0.0 1032.9
21:10 13.8 76 9.6 0.0 0.0 N 0.0 1033.0
21:20 13.7 76 9.6 0.2 3.6 NE 0.0 1032.9
21:30 13.5 76 9.4 2.0 6.1 NNE 0.0 1032.8
21:40 13.4 77 9.5 3.9 8.6 NE 0.0 1032.7
21:50 13.6 77 9.6 3.4 8.6 NE 0.0 1032.8
22:00 13.8 78 10.0 4.4 8.6 NNE 0.0 1032.8
22:10 14.1 77 10.1 3.8 7.2 NE 0.0 1032.9
22:20 14.0 77 10.0 4.3 8.6 NE 0.0 1032.9
22:30 14.1 77 10.1 5.2 9.7 NE 0.0 1032.9
22:40 14.3 77 10.3 6.2 9.7 NE 0.0 1033.1
22:50 14.4 77 10.4 6.6 11.2 NNE 0.0 1033.1
23:00 14.6 77 10.6 8.3 13.3 NNE 0.0 1033.0
23:10 14.8 77 10.8 7.2 13.3 NNE 0.0 1032.9
23:20 14.8 76 10.6 6.1 13.3 NNW 0.0 1032.6
23:30 14.8 75 10.4 7.5 13.3 NNE 0.0 1032.4
23:40 14.8 75 10.4 6.5 12.2 N 0.0 1032.3
23:50 14.8 74 10.2 7.2 13.3 NNE 0.0 1032.1